Time;durP1;ratioP1;P1;durP2;ratioP2;P2;SDS_P1;SDS_P2;PMS_P1;PMS_P2;Temp;Humidity;BMP_temperature;BMP_pressure;BME280_temperature;BME280_humidity;BME280_pressure;Samples;Min_cycle;Max_cycle;Signal;HPM_P1;HPM_P2
2024/01/05 00:01:29;;;;;;;;;;;15.90;68.00;;;;;;10174663;28;93428;-42
2024/01/05 00:06:31;;;;;;;;;;;15.90;68.00;;;;;;10190728;28;94532;-48
2024/01/05 00:11:32;;;;;;;;;;;15.90;68.10;;;;;;10187023;28;98799;-42
2024/01/05 00:16:34;;;;;;;;;;;15.80;68.10;;;;;;10193503;28;93486;-43
2024/01/05 00:21:36;;;;;;;;;;;15.80;69.10;;;;;;10189402;28;93357;-44
2024/01/05 00:26:41;;;;;;;;;;;15.70;68.00;;;;;;10204886;28;95102;-43
2024/01/05 00:31:43;;;;;;;;;;;15.70;68.10;;;;;;10200994;28;94941;-43
2024/01/05 00:36:45;;;;;;;;;;;15.70;68.20;;;;;;10206294;28;94370;-43
2024/01/05 00:41:47;;;;;;;;;;;15.70;68.20;;;;;;10194861;28;93279;-45
2024/01/05 00:46:49;;;;;;;;;;;15.70;68.30;;;;;;10197725;28;93834;-47
2024/01/05 00:51:51;;;;;;;;;;;15.60;68.20;;;;;;10190404;28;94414;-47
2024/01/05 00:56:53;;;;;;;;;;;15.60;68.30;;;;;;10185805;28;94425;-42
2024/01/05 01:01:55;;;;;;;;;;;15.60;68.30;;;;;;10182486;28;95801;-54
2024/01/05 01:06:57;;;;;;;;;;;15.60;68.30;;;;;;10188076;28;93952;-41
2024/01/05 01:11:59;;;;;;;;;;;15.60;68.40;;;;;;10199662;28;94286;-42
2024/01/05 01:17:00;;;;;;;;;;;15.50;68.30;;;;;;10188277;28;93165;-46
2024/01/05 01:22:02;;;;;;;;;;;15.50;68.40;;;;;;10191686;28;93497;-46
2024/01/05 01:27:05;;;;;;;;;;;15.50;68.50;;;;;;10193488;28;93456;-41
2024/01/05 01:32:09;;;;;;;;;;;15.50;68.50;;;;;;10193758;28;94424;-46
2024/01/05 01:37:10;;;;;;;;;;;15.50;68.50;;;;;;10202111;28;92556;-47
2024/01/05 01:42:12;;;;;;;;;;;15.50;68.60;;;;;;10188308;28;94445;-44
2024/01/05 01:47:14;;;;;;;;;;;15.40;68.60;;;;;;10184033;28;93707;-43
2024/01/05 01:52:16;;;;;;;;;;;15.50;68.70;;;;;;10195027;28;96839;-47
2024/01/05 01:57:18;;;;;;;;;;;15.40;68.70;;;;;;10175822;28;94515;-41
2024/01/05 02:07:36;;;;;;;;;;;15.50;68.60;;;;;;10080549;28;98828;-46
2024/01/05 02:12:37;;;;;;;;;;;15.40;68.50;;;;;;10101124;28;94176;-43
2024/01/05 02:17:39;;;;;;;;;;;15.40;68.50;;;;;;10112001;28;93865;-44
2024/01/05 02:22:44;;;;;;;;;;;15.40;68.60;;;;;;10123077;28;94283;-42
2024/01/05 02:27:45;;;;;;;;;;;15.40;68.50;;;;;;10116080;28;93686;-42
2024/01/05 02:32:47;;;;;;;;;;;15.40;68.70;;;;;;10107380;28;94078;-40
2024/01/05 02:37:49;;;;;;;;;;;15.50;68.70;;;;;;10086480;28;95146;-43
2024/01/05 02:42:51;;;;;;;;;;;15.50;68.70;;;;;;10108960;28;96124;-41
2024/01/05 02:47:53;;;;;;;;;;;15.50;68.60;;;;;;10117936;28;94482;-43
2024/01/05 02:52:54;;;;;;;;;;;15.50;68.50;;;;;;10107720;28;94353;-42
2024/01/05 02:57:56;;;;;;;;;;;15.50;68.40;;;;;;10101630;28;94375;-43
2024/01/05 03:02:58;;;;;;;;;;;15.50;68.30;;;;;;10115800;28;94497;-43
2024/01/05 03:08:00;;;;;;;;;;;15.50;68.40;;;;;;10125686;28;93314;-47
2024/01/05 03:13:02;;;;;;;;;;;15.50;68.30;;;;;;10125684;28;95081;-43
2024/01/05 03:18:04;;;;;;;;;;;15.50;68.30;;;;;;10138367;28;93015;-46
2024/01/05 03:23:06;;;;;;;;;;;15.50;68.30;;;;;;10125183;28;94947;-43
2024/01/05 03:28:10;;;;;;;;;;;15.50;68.30;;;;;;10133393;28;94520;-46
2024/01/05 03:33:12;;;;;;;;;;;15.50;68.30;;;;;;10121470;28;95265;-44
2024/01/05 03:38:14;;;;;;;;;;;15.50;68.30;;;;;;10115466;28;93813;-44
2024/01/05 03:43:16;;;;;;;;;;;15.50;68.30;;;;;;10123601;28;94567;-43
2024/01/05 03:48:19;;;;;;;;;;;15.50;68.30;;;;;;10126811;28;94647;-45
2024/01/05 03:53:21;;;;;;;;;;;15.50;68.30;;;;;;10123969;28;93362;-44
2024/01/05 03:58:23;;;;;;;;;;;15.40;68.20;;;;;;10123735;28;93764;-42
2024/01/05 04:03:25;;;;;;;;;;;15.50;68.30;;;;;;10111745;28;93468;-41
2024/01/05 04:08:27;;;;;;;;;;;15.50;68.30;;;;;;10123397;28;92707;-41
2024/01/05 04:13:29;;;;;;;;;;;15.50;68.30;;;;;;10111309;28;93484;-43
2024/01/05 04:18:31;;;;;;;;;;;15.50;68.30;;;;;;10111676;28;94520;-44
2024/01/05 04:23:33;;;;;;;;;;;15.50;68.20;;;;;;10115671;28;97206;-42
2024/01/05 04:28:34;;;;;;;;;;;15.40;68.20;;;;;;10122960;28;94476;-42
2024/01/05 04:33:36;;;;;;;;;;;15.40;68.20;;;;;;10117607;28;93560;-42
2024/01/05 04:38:38;;;;;;;;;;;15.40;68.20;;;;;;10108603;28;94380;-47
2024/01/05 04:43:40;;;;;;;;;;;15.40;68.20;;;;;;10105690;28;94152;-43
2024/01/05 04:48:42;;;;;;;;;;;15.40;68.40;;;;;;10104083;28;95044;-42
2024/01/05 04:53:46;;;;;;;;;;;15.40;68.30;;;;;;10116924;28;94331;-43
2024/01/05 04:58:48;;;;;;;;;;;15.40;68.20;;;;;;10110955;28;93691;-45
2024/01/05 05:03:49;;;;;;;;;;;15.50;68.20;;;;;;10126507;28;94477;-44
2024/01/05 05:08:51;;;;;;;;;;;15.40;68.20;;;;;;10125219;28;94561;-46
2024/01/05 05:13:53;;;;;;;;;;;15.40;68.20;;;;;;10125563;28;97183;-44
2024/01/05 05:18:55;;;;;;;;;;;15.40;68.20;;;;;;10117988;28;94644;-46
2024/01/05 05:23:58;;;;;;;;;;;15.40;68.20;;;;;;10121087;28;93827;-43
2024/01/05 05:29:00;;;;;;;;;;;15.40;68.30;;;;;;10127254;28;94738;-48
2024/01/05 05:34:01;;;;;;;;;;;15.30;68.20;;;;;;10120132;28;94121;-47
2024/01/05 05:39:03;;;;;;;;;;;15.40;68.30;;;;;;10121336;28;95193;-45
2024/01/05 05:44:05;;;;;;;;;;;15.40;68.40;;;;;;10126682;28;94435;-42
2024/01/05 05:49:07;;;;;;;;;;;15.40;68.60;;;;;;10118036;28;94188;-44
2024/01/05 05:54:09;;;;;;;;;;;15.50;68.60;;;;;;10127423;28;94440;-43
2024/01/05 05:59:11;;;;;;;;;;;15.70;68.30;;;;;;10114169;28;94715;-43
2024/01/05 06:04:13;;;;;;;;;;;16.00;67.80;;;;;;10115282;28;96065;-45
2024/01/05 06:09:16;;;;;;;;;;;16.20;67.10;;;;;;10124522;28;94349;-41
2024/01/05 06:14:18;;;;;;;;;;;16.30;67.00;;;;;;10126147;28;93432;-40
2024/01/05 06:19:20;;;;;;;;;;;16.40;66.60;;;;;;10107998;28;94674;-42
2024/01/05 06:24:22;;;;;;;;;;;16.40;66.40;;;;;;10124686;28;94063;-41
2024/01/05 06:29:24;;;;;;;;;;;16.50;66.30;;;;;;10115131;28;94827;-42
2024/01/05 06:34:25;;;;;;;;;;;16.40;66.20;;;;;;10111674;28;93417;-45
2024/01/05 06:39:27;;;;;;;;;;;16.40;66.30;;;;;;10093183;28;93757;-42
2024/01/05 06:44:29;;;;;;;;;;;16.40;66.50;;;;;;10129837;28;94492;-42
2024/01/05 06:49:31;;;;;;;;;;;16.40;66.40;;;;;;10125736;28;93488;-45
2024/01/05 06:54:34;;;;;;;;;;;16.40;66.40;;;;;;10123281;28;95897;-41
2024/01/05 06:59:37;;;;;;;;;;;16.40;66.40;;;;;;10124710;28;93723;-41
2024/01/05 07:04:40;;;;;;;;;;;16.30;66.60;;;;;;10123494;28;94461;-44
2024/01/05 07:09:41;;;;;;;;;;;16.40;66.80;;;;;;10125212;28;93821;-42
2024/01/05 07:14:43;;;;;;;;;;;16.50;66.50;;;;;;10124838;28;94594;-45
2024/01/05 07:19:45;;;;;;;;;;;16.50;66.30;;;;;;10119768;28;94476;-43
2024/01/05 07:24:47;;;;;;;;;;;16.50;66.10;;;;;;10118207;28;94764;-41
2024/01/05 07:29:49;;;;;;;;;;;16.50;66.20;;;;;;10125669;28;93782;-42
2024/01/05 07:34:52;;;;;;;;;;;16.50;66.30;;;;;;10119298;28;94454;-42
2024/01/05 07:39:54;;;;;;;;;;;16.60;66.30;;;;;;10108210;28;94664;-42
2024/01/05 07:44:57;;;;;;;;;;;16.70;66.00;;;;;;10115537;28;96264;-41
2024/01/05 07:49:59;;;;;;;;;;;16.70;65.90;;;;;;10131114;28;94080;-42
2024/01/05 07:55:02;;;;;;;;;;;16.60;65.70;;;;;;10120430;28;93465;-42
2024/01/05 08:00:04;;;;;;;;;;;16.60;65.90;;;;;;10101138;28;93469;-44
2024/01/05 08:05:07;;;;;;;;;;;16.70;66.00;;;;;;10138729;28;92650;-42
2024/01/05 08:10:11;;;;;;;;;;;16.70;65.90;;;;;;10122890;28;114021;-45
2024/01/05 08:15:13;;;;;;;;;;;16.70;65.80;;;;;;10123135;28;94644;-42
2024/01/05 08:20:15;;;;;;;;;;;16.60;65.90;;;;;;10120508;28;94344;-42
2024/01/05 08:25:17;;;;;;;;;;;16.60;66.00;;;;;;10120360;28;93458;-45
2024/01/05 08:30:22;;;;;;;;;;;16.60;65.90;;;;;;10128804;28;94516;-45
2024/01/05 08:35:24;;;;;;;;;;;16.60;65.90;;;;;;10112473;28;97336;-46
2024/01/05 08:40:28;;;;;;;;;;;16.60;65.90;;;;;;10126490;28;93959;-42
2024/01/05 08:45:31;;;;;;;;;;;16.60;65.90;;;;;;10129061;28;93414;-43
2024/01/05 08:50:34;;;;;;;;;;;16.60;66.10;;;;;;10137659;28;94119;-44
2024/01/05 08:55:36;;;;;;;;;;;16.60;66.00;;;;;;10130130;28;93856;-46
2024/01/05 09:00:40;;;;;;;;;;;16.60;65.90;;;;;;10123239;28;94290;-42
2024/01/05 09:05:42;;;;;;;;;;;16.60;65.90;;;;;;10128627;28;94182;-44
2024/01/05 09:10:44;;;;;;;;;;;16.50;66.10;;;;;;10129558;28;93845;-42
2024/01/05 09:15:46;;;;;;;;;;;16.60;66.10;;;;;;10124778;28;92848;-42
2024/01/05 09:20:48;;;;;;;;;;;16.60;66.00;;;;;;10121411;28;93481;-43
2024/01/05 09:25:50;;;;;;;;;;;16.60;65.90;;;;;;10125462;28;96831;-43
2024/01/05 09:30:52;;;;;;;;;;;16.50;65.90;;;;;;10112989;28;93761;-46
2024/01/05 09:35:56;;;;;;;;;;;16.50;66.00;;;;;;10116293;28;92857;-42
2024/01/05 09:40:58;;;;;;;;;;;16.50;66.00;;;;;;10117692;28;93382;-44
2024/01/05 09:46:00;;;;;;;;;;;16.50;65.90;;;;;;10120720;28;93626;-44
2024/01/05 09:51:03;;;;;;;;;;;16.50;66.00;;;;;;10112423;28;94461;-48
2024/01/05 09:56:05;;;;;;;;;;;16.50;66.10;;;;;;10126119;28;93551;-45
2024/01/05 10:01:11;;;;;;;;;;;16.50;66.20;;;;;;10109859;28;92650;-46
2024/01/05 10:06:15;;;;;;;;;;;16.50;66.10;;;;;;10126945;28;93729;-51
2024/01/05 10:11:26;;;;;;;;;;;16.50;66.10;;;;;;10125544;28;93993;-42
2024/01/05 10:16:39;;;;;;;;;;;16.40;66.00;;;;;;10114142;28;96916;-42
2024/01/05 10:21:43;;;;;;;;;;;16.40;66.10;;;;;;10119797;28;93662;-43
2024/01/05 10:26:45;;;;;;;;;;;16.40;66.20;;;;;;10126286;28;93939;-41
2024/01/05 10:31:47;;;;;;;;;;;16.50;66.10;;;;;;10126299;28;94417;-42
2024/01/05 10:36:49;;;;;;;;;;;16.50;66.00;;;;;;10116006;28;93495;-45
2024/01/05 10:41:51;;;;;;;;;;;16.40;66.00;;;;;;10116019;28;93461;-42
2024/01/05 10:46:53;;;;;;;;;;;16.50;66.20;;;;;;10126228;28;93368;-46
2024/01/05 10:51:55;;;;;;;;;;;16.60;66.20;;;;;;10129055;28;93648;-46
2024/01/05 10:56:56;;;;;;;;;;;16.80;66.00;;;;;;10125674;28;93467;-43
2024/01/05 11:01:59;;;;;;;;;;;17.00;65.50;;;;;;10120641;28;94325;-42
2024/01/05 11:07:01;;;;;;;;;;;17.30;65.10;;;;;;10121429;28;95817;-44
2024/01/05 11:12:23;;;;;;;;;;;17.50;64.40;;;;;;10116848;28;93280;-46
2024/01/05 11:17:25;;;;;;;;;;;17.70;64.00;;;;;;10120149;28;94500;-42
2024/01/05 11:22:30;;;;;;;;;;;17.80;63.70;;;;;;10117623;28;94826;-43
2024/01/05 11:27:33;;;;;;;;;;;17.90;63.40;;;;;;10117946;28;93469;-42
2024/01/05 11:32:38;;;;;;;;;;;17.90;63.20;;;;;;10121171;28;94244;-43
2024/01/05 11:37:41;;;;;;;;;;;17.80;63.10;;;;;;10102626;28;94006;-46
2024/01/05 11:42:47;;;;;;;;;;;17.80;63.20;;;;;;10119769;28;93660;-41
2024/01/05 11:47:49;;;;;;;;;;;17.70;63.50;;;;;;10122693;28;93586;-41
2024/01/05 11:53:10;;;;;;;;;;;17.70;63.50;;;;;;10129875;28;94073;-58
2024/01/05 11:58:15;;;;;;;;;;;17.60;63.50;;;;;;10108008;28;96979;-41
2024/01/05 12:03:17;;;;;;;;;;;17.50;63.70;;;;;;10109671;28;93109;-42
2024/01/05 12:08:20;;;;;;;;;;;17.50;63.90;;;;;;10122645;28;94204;-46
2024/01/05 12:13:26;;;;;;;;;;;17.50;64.00;;;;;;10130182;28;94686;-45
2024/01/05 12:18:30;;;;;;;;;;;17.60;64.00;;;;;;10125895;28;94153;-42
2024/01/05 12:23:39;;;;;;;;;;;17.70;63.80;;;;;;10128164;28;93745;-44
2024/01/05 12:28:46;;;;;;;;;;;17.80;63.50;;;;;;10130454;28;94555;-45
2024/01/05 12:33:48;;;;;;;;;;;17.80;63.40;;;;;;10131601;28;94159;-44
2024/01/05 12:38:50;;;;;;;;;;;17.80;63.50;;;;;;10127602;28;94968;-47
2024/01/05 12:43:52;;;;;;;;;;;17.70;63.60;;;;;;10125103;28;94331;-43
2024/01/05 12:48:53;;;;;;;;;;;17.80;63.70;;;;;;10120228;28;97039;-44
2024/01/05 12:53:59;;;;;;;;;;;17.80;63.50;;;;;;10119365;28;94550;-45
2024/01/05 12:59:03;;;;;;;;;;;17.80;63.40;;;;;;10117954;28;93442;-45
2024/01/05 13:04:07;;;;;;;;;;;17.70;63.50;;;;;;10129377;28;94799;-43
2024/01/05 13:09:09;;;;;;;;;;;17.70;63.70;;;;;;10118887;28;94419;-45
2024/01/05 13:14:11;;;;;;;;;;;17.70;63.70;;;;;;10127615;28;93489;-44
2024/01/05 13:19:14;;;;;;;;;;;17.80;63.60;;;;;;10123482;28;94404;-48
2024/01/05 13:24:16;;;;;;;;;;;17.80;63.40;;;;;;10129002;28;93908;-47
2024/01/05 13:29:18;;;;;;;;;;;17.80;63.30;;;;;;10128851;28;93732;-43
2024/01/05 13:34:20;;;;;;;;;;;17.80;63.40;;;;;;10128629;28;94821;-42
2024/01/05 13:39:22;;;;;;;;;;;17.70;63.50;;;;;;10119078;28;95951;-47
2024/01/05 13:44:25;;;;;;;;;;;17.80;63.50;;;;;;10121526;28;93713;-42
2024/01/05 13:49:29;;;;;;;;;;;17.80;63.50;;;;;;10107848;28;94470;-42
2024/01/05 13:54:33;;;;;;;;;;;17.70;63.50;;;;;;10122165;28;93488;-46
2024/01/05 13:59:36;;;;;;;;;;;17.70;63.70;;;;;;10113584;28;93476;-47
2024/01/05 14:04:37;;;;;;;;;;;17.70;63.80;;;;;;10138057;28;93510;-46
2024/01/05 14:09:40;;;;;;;;;;;17.70;63.70;;;;;;10119998;28;94100;-45
2024/01/05 14:14:42;;;;;;;;;;;17.80;63.60;;;;;;10125440;28;92283;-43
2024/01/05 14:19:45;;;;;;;;;;;17.70;63.60;;;;;;10122759;28;93523;-42
2024/01/05 14:24:47;;;;;;;;;;;17.70;63.70;;;;;;10118704;28;93997;-45
2024/01/05 14:29:51;;;;;;;;;;;17.70;63.80;;;;;;10119459;28;96730;-45
2024/01/05 14:34:52;;;;;;;;;;;17.70;63.70;;;;;;10124914;28;94323;-46
2024/01/05 14:39:55;;;;;;;;;;;17.80;63.60;;;;;;10112565;28;93464;-44
2024/01/05 14:44:56;;;;;;;;;;;17.80;63.50;;;;;;10125327;28;94571;-42
2024/01/05 14:49:58;;;;;;;;;;;17.80;63.40;;;;;;10126124;28;94163;-44
2024/01/05 14:55:00;;;;;;;;;;;17.70;63.60;;;;;;10123392;28;94118;-44
2024/01/05 15:00:02;;;;;;;;;;;17.70;63.60;;;;;;10124896;28;94032;-45
2024/01/05 15:05:04;;;;;;;;;;;17.80;63.50;;;;;;10123782;28;93539;-44
2024/01/05 15:10:07;;;;;;;;;;;17.80;63.30;;;;;;10124633;28;94886;-44
2024/01/05 15:15:09;;;;;;;;;;;17.80;63.30;;;;;;10125076;28;93528;-42
2024/01/05 15:20:11;;;;;;;;;;;17.70;63.50;;;;;;10119004;28;96729;-45
2024/01/05 15:25:15;;;;;;;;;;;17.70;63.50;;;;;;10125804;28;94786;-44
2024/01/05 15:30:17;;;;;;;;;;;17.70;63.40;;;;;;10117366;28;93407;-42
2024/01/05 15:35:19;;;;;;;;;;;17.70;63.40;;;;;;10132558;28;93481;-43
2024/01/05 15:40:20;;;;;;;;;;;17.60;63.50;;;;;;10111332;28;93598;-45
2024/01/05 15:45:31;;;;;;;;;;;17.60;64.20;;;;;;10121142;28;94668;-46
2024/01/05 15:50:33;;;;;;;;;;;17.70;63.80;;;;;;10074988;28;95025;-46
2024/01/05 15:55:36;;;;;;;;;;;17.70;63.40;;;;;;10091108;28;92741;-47
2024/01/05 16:00:41;;;;;;;;;;;17.80;63.30;;;;;;10085117;28;94743;-42
2024/01/05 16:05:44;;;;;;;;;;;17.80;63.80;;;;;;10097918;28;94105;-47
2024/01/05 16:10:47;;;;;;;;;;;17.80;64.30;;;;;;10100034;28;95699;-44
2024/01/05 16:15:49;;;;;;;;;;;17.80;64.70;;;;;;10109212;28;94727;-47
2024/01/05 16:20:51;;;;;;;;;;;18.00;64.60;;;;;;10092389;28;93676;-43
2024/01/05 16:25:53;;;;;;;;;;;18.20;64.40;;;;;;10091790;28;95797;-44
2024/01/05 16:30:55;;;;;;;;;;;18.30;63.90;;;;;;10114051;28;94681;-42
2024/01/05 16:35:57;;;;;;;;;;;18.40;63.60;;;;;;10104877;28;93250;-43
2024/01/05 16:40:58;;;;;;;;;;;18.40;64.80;;;;;;10107958;28;94792;-41
2024/01/05 16:46:00;;;;;;;;;;;18.50;65.80;;;;;;10093323;28;93712;-42
2024/01/05 16:51:02;;;;;;;;;;;18.40;65.30;;;;;;10113606;28;94394;-42
2024/01/05 16:56:04;;;;;;;;;;;18.30;65.20;;;;;;10102275;28;94507;-46
2024/01/05 17:01:06;;;;;;;;;;;18.20;65.30;;;;;;10107277;28;96790;-44
2024/01/05 17:06:09;;;;;;;;;;;18.10;65.70;;;;;;10107834;28;93533;-44
2024/01/05 17:11:22;;;;;;;;;;;18.00;66.00;;;;;;10109905;28;94409;-50
2024/01/05 17:16:24;;;;;;;;;;;18.00;66.50;;;;;;10116966;28;93653;-42
2024/01/05 17:21:28;;;;;;;;;;;17.90;67.00;;;;;;10107593;28;93475;-44
2024/01/05 17:26:36;;;;;;;;;;;17.80;67.10;;;;;;10117344;28;93770;-42
2024/01/05 17:31:38;;;;;;;;;;;17.80;67.30;;;;;;10112167;28;93507;-42
2024/01/05 17:36:41;;;;;;;;;;;17.80;67.20;;;;;;10114173;28;93055;-42
2024/01/05 17:41:43;;;;;;;;;;;17.80;70.10;;;;;;10116198;28;93836;-45
2024/01/05 17:46:45;;;;;;;;;;;17.80;70.90;;;;;;10114928;28;94343;-46
2024/01/05 17:51:47;;;;;;;;;;;17.90;70.70;;;;;;10105025;28;98897;-44
2024/01/05 17:56:50;;;;;;;;;;;17.90;69.60;;;;;;10111330;28;94789;-46
2024/01/05 18:01:52;;;;;;;;;;;17.80;69.20;;;;;;10097629;28;95132;-48
2024/01/05 18:06:54;;;;;;;;;;;17.90;69.30;;;;;;10104127;28;94758;-43
2024/01/05 18:11:56;;;;;;;;;;;18.00;69.10;;;;;;10112963;28;94489;-43
2024/01/05 18:16:58;;;;;;;;;;;18.10;69.70;;;;;;10108270;28;94438;-42
2024/01/05 18:22:00;;;;;;;;;;;18.20;69.60;;;;;;10113442;28;94594;-47
2024/01/05 18:27:02;;;;;;;;;;;18.30;69.60;;;;;;10112914;28;92480;-41
2024/01/05 18:32:04;;;;;;;;;;;18.20;70.40;;;;;;10104423;28;94471;-42
2024/01/05 18:37:05;;;;;;;;;;;18.20;70.80;;;;;;10126732;28;94865;-41
2024/01/05 18:42:08;;;;;;;;;;;18.20;69.70;;;;;;10106336;28;96620;-43
2024/01/05 18:47:10;;;;;;;;;;;18.20;69.60;;;;;;10123833;28;94378;-42
2024/01/05 18:52:14;;;;;;;;;;;18.20;69.70;;;;;;10116183;28;93856;-42
2024/01/05 18:57:17;;;;;;;;;;;18.20;69.80;;;;;;10123198;28;94132;-43
2024/01/05 19:02:19;;;;;;;;;;;18.10;69.70;;;;;;10111584;28;94843;-46
2024/01/05 19:07:21;;;;;;;;;;;18.10;70.10;;;;;;10106526;28;94612;-49
2024/01/05 19:12:23;;;;;;;;;;;18.10;70.20;;;;;;10112930;28;93599;-44
2024/01/05 19:17:25;;;;;;;;;;;18.00;70.70;;;;;;10105544;28;93091;-43
2024/01/05 19:22:27;;;;;;;;;;;18.00;70.10;;;;;;10102841;28;93636;-45
2024/01/05 19:27:29;;;;;;;;;;;18.00;70.10;;;;;;10109613;28;92910;-45
2024/01/05 19:32:31;;;;;;;;;;;18.00;70.20;;;;;;10113929;28;96874;-45
2024/01/05 19:37:34;;;;;;;;;;;18.10;70.10;;;;;;10096419;28;93781;-43
2024/01/05 19:42:35;;;;;;;;;;;18.20;69.90;;;;;;10120544;28;93913;-44
2024/01/05 19:47:37;;;;;;;;;;;18.20;69.70;;;;;;10108455;28;94840;-47
2024/01/05 19:52:39;;;;;;;;;;;18.20;69.50;;;;;;10110039;28;93567;-43
2024/01/05 19:57:41;;;;;;;;;;;18.20;69.60;;;;;;10110680;28;93485;-44
2024/01/05 20:02:43;;;;;;;;;;;18.20;69.60;;;;;;10114549;28;93434;-43
2024/01/05 20:07:45;;;;;;;;;;;18.20;69.60;;;;;;10110483;28;93814;-44
2024/01/05 20:12:47;;;;;;;;;;;18.20;70.60;;;;;;10118828;28;93473;-43
2024/01/05 20:17:49;;;;;;;;;;;18.10;69.80;;;;;;10099734;28;94162;-45
2024/01/05 20:22:51;;;;;;;;;;;18.10;69.70;;;;;;10105303;28;97235;-45
2024/01/05 20:27:55;;;;;;;;;;;18.10;69.80;;;;;;10118939;28;93325;-45
2024/01/05 20:32:57;;;;;;;;;;;18.10;69.70;;;;;;10117932;28;94603;-43
2024/01/05 20:37:58;;;;;;;;;;;18.10;69.40;;;;;;10116544;28;95031;-45
2024/01/05 20:43:00;;;;;;;;;;;18.10;70.10;;;;;;10115512;28;93487;-44
2024/01/05 20:48:02;;;;;;;;;;;18.10;70.90;;;;;;10117783;28;93822;-43
2024/01/05 20:53:06;;;;;;;;;;;18.10;70.30;;;;;;10118663;28;94180;-45
2024/01/05 20:58:13;;;;;;;;;;;18.00;70.20;;;;;;10119660;28;93220;-42
2024/01/05 21:03:15;;;;;;;;;;;18.00;70.30;;;;;;10104152;28;94447;-45
2024/01/05 21:08:17;;;;;;;;;;;17.90;70.50;;;;;;10122650;28;95175;-43
2024/01/05 21:13:19;;;;;;;;;;;17.90;70.60;;;;;;10114432;28;95640;-45
2024/01/05 21:18:21;;;;;;;;;;;17.80;70.80;;;;;;10114284;28;93646;-45
2024/01/05 21:23:23;;;;;;;;;;;17.70;70.90;;;;;;10120167;28;94809;-45
2024/01/05 21:28:25;;;;;;;;;;;17.70;71.10;;;;;;10100271;28;94455;-46
2024/01/05 21:33:27;;;;;;;;;;;17.70;71.30;;;;;;10113862;28;93390;-43
2024/01/05 21:38:29;;;;;;;;;;;17.60;71.30;;;;;;10115843;28;94912;-44
2024/01/05 21:43:31;;;;;;;;;;;17.60;71.40;;;;;;10113896;28;94488;-43
2024/01/05 21:48:34;;;;;;;;;;;17.60;71.30;;;;;;10119858;28;93230;-42
2024/01/05 21:53:36;;;;;;;;;;;17.50;71.50;;;;;;10107454;28;94448;-47
2024/01/05 21:58:38;;;;;;;;;;;17.50;71.30;;;;;;10113465;28;93510;-44
2024/01/05 22:03:40;;;;;;;;;;;17.40;70.90;;;;;;10115170;28;95363;-45
2024/01/05 22:08:42;;;;;;;;;;;17.40;70.60;;;;;;10117534;28;94650;-47
2024/01/05 22:13:43;;;;;;;;;;;17.30;70.70;;;;;;10113975;28;93480;-42
2024/01/05 22:18:45;;;;;;;;;;;17.30;70.60;;;;;;10119584;28;94864;-44
2024/01/05 22:23:47;;;;;;;;;;;17.20;70.50;;;;;;10119673;28;92993;-45
2024/01/05 22:28:49;;;;;;;;;;;17.20;70.50;;;;;;10122194;28;94462;-43
2024/01/05 22:33:51;;;;;;;;;;;17.20;70.50;;;;;;10119959;28;94752;-45
2024/01/05 22:38:53;;;;;;;;;;;17.20;70.30;;;;;;10113988;28;93323;-43
2024/01/05 22:43:55;;;;;;;;;;;17.10;70.10;;;;;;10111381;28;93883;-43
2024/01/05 22:48:57;;;;;;;;;;;17.10;70.10;;;;;;10120144;28;94460;-44
2024/01/05 22:53:59;;;;;;;;;;;17.10;70.00;;;;;;10110106;28;98077;-43
2024/01/05 22:59:01;;;;;;;;;;;17.00;69.90;;;;;;10117762;28;93492;-43
2024/01/05 23:04:03;;;;;;;;;;;17.00;69.80;;;;;;10108444;28;94681;-44
2024/01/05 23:09:06;;;;;;;;;;;16.90;69.80;;;;;;10121478;28;94987;-46
2024/01/05 23:14:08;;;;;;;;;;;16.90;69.80;;;;;;10121423;28;94209;-45
2024/01/05 23:19:10;;;;;;;;;;;16.80;69.50;;;;;;10116370;28;93302;-48
2024/01/05 23:24:12;;;;;;;;;;;16.90;69.50;;;;;;10122350;28;95190;-46
2024/01/05 23:29:14;;;;;;;;;;;16.80;69.40;;;;;;10108855;28;92756;-44
2024/01/05 23:34:16;;;;;;;;;;;16.80;69.40;;;;;;10113843;28;93579;-42
2024/01/05 23:39:18;;;;;;;;;;;16.80;69.30;;;;;;10120841;28;94049;-45
2024/01/05 23:44:20;;;;;;;;;;;16.70;69.20;;;;;;10102553;28;96420;-48
2024/01/05 23:49:22;;;;;;;;;;;16.70;69.20;;;;;;10122758;28;93620;-44
2024/01/05 23:54:24;;;;;;;;;;;16.70;69.10;;;;;;10117659;28;94477;-44
2024/01/05 23:59:26;;;;;;;;;;;16.70;69.20;;;;;;10101588;28;93507;-47
